Dati Storici

Data ora Umidita' aria (%) Temperatura aria (°C) Rad globale (W/m²) Gonioanemometro (°) Tacoanemometro (m/s) Pioggia (mm)
06-06-2020 14:10 69.6 % 22.752 -76.205 1.535 0 0
06-06-2020 14:00 68.2 % 23.076 -69.85 3.55 0 0
06-06-2020 13:50 67.1 % 23.33 -72.938 2.909 0 0
06-06-2020 13:40 63.2 % 23.274 -79.864 3.471 0 0
06-06-2020 13:30 67.8 % 24.151 -72.782 1.981 0 0
06-06-2020 13:20 68.7 % 23.003 -74.891 2.898 0 0
06-06-2020 13:10 70.3 % 23.065 -79.167 1.624 0 0
06-06-2020 13:00 70.7 % 23.057 -76.998 2.139 0 0
06-06-2020 12:50 71.3 % 23.176 -74.921 1.354 0 0
06-06-2020 12:40 71.3 % 22.986 -74.516 1.572 0 0
06-06-2020 12:30 70.9 % 22.741 -76.187 2.324 0 0
06-06-2020 12:20 72.7 % 22.726 -80.255 3.385 0 0
06-06-2020 12:10 73.6 % 22.995 -75.257 2.251 0 0
06-06-2020 12:00 71.9 % 22.547 -78.869 3.13 0 0
06-06-2020 11:50 71.7 % 22.519 -77.302 1.742 0 0
06-06-2020 11:40 71.1 % 22.714 -76.134 1.937 0 0
06-06-2020 11:30 69.9 % 22.639 -77.485 3.008 0 0
06-06-2020 11:20 71.2 % 22.491 -74.442 3.401 0 0
06-06-2020 11:10 73.6 % 22.347 -67.87 0.38 0 0
06-06-2020 11:00 74.2 % 22.851 -80.644 1.939 0 0

I dati sono presentati in modo automatico a scopo informativo. In seguito a verifica i dati possono subire modifiche o essere invalidati e non riportati negli archivi definitivi.